.
WxDataArchive / Data Records for 2010-07-30
2010-07-29 July 2010 2010-07-31

Data Records for Friday, 30 July 2010

Time	Temp	Chill	HIndex	Humid	Dewpt	 Wind 	HiWind	WindDir	Rain 	Barom 
-----	----	-----	------	-----	-----	------	------	-------	-----	----- 
00:00	65.5	65.5	65.5	82	59.9	0	0	---	0.00	30.069 
00:05	65.3	65.3	65.3	82	59.7	0	0	---	0.00	30.069 
00:10	65.2	65.2	65.2	83	59.9	0	0	---	0.00	30.069 
00:15	65.2	65.2	65.2	84	60.2	0	0	---	0.00	30.066 
00:20	65.2	65.2	65.2	84	60.2	0	0	---	0.00	30.066 
00:25	65.2	65.2	65.2	84	60.2	0	0	---	0.00	30.066 
00:30	65.0	65.0	65.0	84	60.0	0	0	---	0.00	30.062 
00:35	64.8	64.8	64.8	84	59.8	0	0	---	0.00	30.062 
00:40	65.0	65.0	65.0	84	60.0	0	0	---	0.00	30.062 
00:45	65.0	65.0	65.0	84	60.0	0	0	---	0.00	30.060 
00:50	65.0	65.0	65.0	84	60.0	0	0	---	0.00	30.060 
00:55	64.8	64.8	64.8	84	59.8	0	0	---	0.00	30.060 
01:00	64.8	64.8	64.8	84	59.8	0	0	---	0.00	30.060 
01:05	64.7	64.7	64.7	84	59.7	0	0	---	0.00	30.060 
01:10	64.7	64.7	64.7	85	60.1	0	0	---	0.00	30.060 
01:15	64.5	64.5	64.5	85	59.9	0	0	---	0.00	30.061 
01:20	64.3	64.3	64.3	85	59.7	0	0	---	0.00	30.061 
01:25	64.2	64.2	64.2	85	59.6	0	0	---	0.00	30.061 
01:30	64.2	64.2	64.2	86	59.9	0	0	---	0.00	30.061 
01:35	64.0	64.0	64.0	86	59.7	0	0	---	0.00	30.061 
01:40	64.0	64.0	64.0	87	60.0	0	0	---	0.00	30.061 
01:45	63.9	63.9	63.9	87	59.9	0	0	---	0.00	30.059 
01:50	63.9	63.9	63.9	87	59.9	0	0	---	0.00	30.059 
01:55	63.7	63.7	63.7	87	59.8	0	0	---	0.00	30.059 
02:00	63.7	63.7	63.7	87	59.8	0	0	---	0.00	30.054 
02:05	63.5	63.5	63.5	88	59.9	0	0	---	0.00	30.054 
02:10	63.4	63.4	63.4	88	59.8	0	0	---	0.00	30.054 
02:15	63.4	63.4	63.4	88	59.8	0	0	---	0.00	30.047 
02:20	63.2	63.2	63.2	88	59.6	0	0	---	0.00	30.047 
02:25	63.1	63.1	63.1	88	59.5	0	0	---	0.00	30.047 
02:30	62.9	62.9	62.9	89	59.6	0	0	---	0.00	30.046 
02:35	62.7	62.7	62.7	89	59.4	0	0	---	0.00	30.046 
02:40	62.7	62.7	62.7	89	59.4	0	0	---	0.00	30.046 
02:45	62.6	62.6	62.6	89	59.3	0	0	---	0.00	30.046 
02:50	62.4	62.4	62.4	90	59.4	0	0	---	0.00	30.046 
02:55	62.4	62.4	62.4	90	59.4	0	0	---	0.00	30.046 
03:00	62.3	62.3	62.3	90	59.3	0	0	---	0.00	30.045 
03:05	62.3	62.3	62.3	91	59.6	0	0	---	0.00	30.045 
03:10	62.1	62.1	62.1	91	59.4	0	0	---	0.00	30.045 
03:15	62.1	62.1	62.1	91	59.4	0	0	---	0.00	30.044 
03:20	62.1	62.1	62.1	91	59.4	0	0	---	0.00	30.044 
03:25	62.1	62.1	62.1	91	59.4	0	0	---	0.00	30.044 
03:30	62.1	62.1	62.1	92	59.7	0	0	---	0.00	30.037 
03:35	62.1	62.1	62.1	92	59.7	0	0	---	0.00	30.037 
03:40	62.1	62.1	62.1	92	59.7	0	0	---	0.00	30.037 
03:45	62.1	62.1	62.1	92	59.7	0	0	---	0.00	30.032 
03:50	62.0	62.0	62.0	92	59.6	0	0	---	0.00	30.032 
03:55	62.0	62.0	62.0	92	59.6	0	0	---	0.00	30.032 
04:00	62.1	62.1	62.1	92	59.7	0	0	---	0.00	30.030 
04:05	62.1	62.1	62.1	92	59.7	0	0	---	0.00	30.030 
04:10	62.1	62.1	62.1	92	59.7	0	0	---	0.00	30.030 
04:15	62.3	62.3	62.3	92	59.9	0	0	---	0.00	30.031 
04:20	62.3	62.3	62.3	92	59.9	0	0	---	0.00	30.031 
04:25	62.4	62.4	62.4	93	60.3	0	0	---	0.00	30.031 
04:30	62.6	62.6	62.6	93	60.5	0	0	---	0.00	30.033 
04:35	62.7	62.7	62.7	93	60.6	0	0	---	0.00	30.033 
04:40	62.9	62.9	62.9	93	60.8	0	0	---	0.00	30.033 
04:45	63.1	63.1	63.1	93	61.0	0	0	---	0.00	30.032 
04:50	63.2	63.2	63.2	92	60.8	0	0	---	0.00	30.032 
04:55	63.4	63.4	63.4	92	61.0	0	0	---	0.00	30.032 
05:00	63.5	63.5	63.5	92	61.1	0	0	---	0.00	30.040 
05:05	63.7	63.7	63.7	92	61.3	0	0	---	0.00	30.040 
05:10	63.9	63.9	63.9	91	61.2	0	0	---	0.00	30.040 
05:15	63.9	63.9	63.9	91	61.2	0	0	---	0.00	30.044 
05:20	64.0	64.0	64.0	90	61.0	0	0	---	0.00	30.044 
05:25	64.0	64.0	64.0	90	61.0	0	0	---	0.00	30.044 
05:30	64.0	64.0	64.0	90	61.0	0	0	---	0.00	30.044 
05:35	64.0	64.0	64.0	90	61.0	0	0	---	0.00	30.044 
05:40	64.0	64.0	64.0	89	60.7	0	0	---	0.00	30.044 
05:45	64.0	64.0	64.0	89	60.7	0	0	---	0.00	30.045 
05:50	64.0	64.0	64.0	89	60.7	0	0	---	0.00	30.045 
05:55	64.0	64.0	64.0	89	60.7	0	0	---	0.00	30.045 
06:00	64.0	64.0	64.0	89	60.7	0	0	---	0.00	30.052 
06:05	64.0	64.0	64.0	89	60.7	0	0	---	0.00	30.052 
06:10	64.0	64.0	64.0	89	60.7	0	0	---	0.00	30.052 
06:15	64.0	64.0	64.0	89	60.7	0	0	---	0.00	30.050 
06:20	64.0	64.0	64.0	89	60.7	0	0	---	0.00	30.050 
06:25	63.9	63.9	63.9	89	60.6	0	0	---	0.00	30.050 
06:30	63.9	63.9	63.9	89	60.6	0	0	---	0.00	30.050 
06:35	63.9	63.9	63.9	90	60.9	0	0	---	0.00	30.050 
06:40	64.0	64.0	64.0	90	61.0	0	0	---	0.00	30.050 
06:45	63.9	63.9	63.9	90	60.9	0	0	---	0.00	30.052 
06:50	63.9	63.9	63.9	90	60.9	0	0	---	0.00	30.052 
06:55	63.9	63.9	63.9	90	60.9	0	0	---	0.00	30.052 
07:00	63.9	63.9	63.9	90	60.9	0	0	---	0.00	30.061 
07:05	63.9	63.9	63.9	90	60.9	0	0	---	0.00	30.061 
07:10	64.0	64.0	64.0	90	61.0	0	0	---	0.00	30.061 
07:15	64.0	64.0	64.0	90	61.0	0	0	---	0.00	30.060 
07:20	64.2	64.2	64.2	90	61.2	0	0	---	0.00	30.060 
07:25	64.3	64.3	64.3	90	61.3	0	0	---	0.00	30.060 
07:30	64.5	64.5	64.5	90	61.5	0	0	---	0.00	30.062 
07:35	64.8	64.8	64.8	90	61.8	0	0	---	0.00	30.062 
07:40	65.2	65.2	65.2	90	62.2	0	0	---	0.00	30.062 
07:45	65.3	65.3	65.3	89	62.0	0	0	---	0.00	30.063 
07:50	65.6	65.6	65.6	89	62.3	0	0	---	0.00	30.063 
07:55	66.1	66.1	66.1	87	62.1	0	0	---	0.00	30.063 
08:00	66.8	66.8	66.8	84	61.8	0	0	---	0.00	30.052 
08:05	67.3	67.3	67.3	78	60.2	0	1	112	0.00	30.052 
08:10	68.1	68.1	68.1	77	60.6	0	1	112	0.00	30.052 
08:15	69.1	69.1	69.1	73	60.1	0	0	---	0.00	30.062 
08:20	69.8	69.8	69.8	70	59.6	0	3	112	0.00	30.062 
08:25	70.6	70.6	70.6	69	59.9	0	1	112	0.00	30.062 
08:30	71.5	71.5	71.5	67	60.0	0	2	112	0.00	30.062 
08:35	72.0	72.0	72.0	64	59.1	0	2	112	0.00	30.062 
08:40	72.3	72.3	72.3	65	59.9	0	1	112	0.00	30.062 
08:45	72.5	72.5	72.5	64	59.6	0	1	112	0.00	30.062 
08:50	72.7	72.7	72.7	63	59.4	0	1	112	0.00	30.062 
08:55	72.5	72.5	72.5	62	58.7	0	2	112	0.00	30.062 
09:00	72.3	72.3	72.3	64	59.4	0	2	112	0.00	30.069 
09:05	72.0	72.0	72.0	64	59.1	1	4	112	0.00	30.069 
09:10	72.1	72.1	72.1	65	59.7	0	1	112	0.00	30.069 
09:15	72.1	72.1	72.1	64	59.2	1	2	112	0.00	30.066 
09:20	72.5	72.5	72.5	65	60.0	0	1	112	0.00	30.066 
09:25	73.0	73.0	73.0	62	59.2	0	3	112	0.00	30.066 
09:30	73.5	73.5	73.5	58	57.8	0	3	112	0.00	30.075 
09:35	73.7	73.7	73.7	58	58.0	1	4	112	0.00	30.075 
09:40	74.0	74.0	74.0	58	58.3	1	3	90	0.00	30.075 
09:45	74.6	74.6	74.6	58	58.8	0	1	90	0.00	30.077 
09:50	75.1	75.1	77.5	57	58.8	0	1	90	0.00	30.077 
09:55	75.4	75.4	77.7	58	59.6	0	1	90	0.00	30.077 
10:00	75.6	75.6	77.8	58	59.8	0	1	90	0.00	30.071 
10:05	76.0	76.0	78.1	55	58.6	0	2	90	0.00	30.071 
10:10	76.5	76.5	78.4	54	58.6	0	3	90	0.00	30.071 
10:15	76.1	76.1	78.1	54	58.2	2	3	90	0.00	30.072 
10:20	76.0	76.0	78.1	55	58.6	0	2	90	0.00	30.072 
10:25	76.5	76.5	78.4	53	58.1	0	1	90	0.00	30.072 
10:30	76.8	76.8	78.6	57	60.4	0	2	68	0.00	30.069 
10:35	77.0	77.0	78.7	54	59.1	1	4	68	0.00	30.069 
10:40	77.0	77.0	78.7	53	58.5	1	3	68	0.00	30.069 
10:45	77.0	77.0	78.7	54	59.1	0	1	112	0.00	30.063 
10:50	77.6	77.6	79.1	53	59.1	0	1	112	0.00	30.063 
10:55	77.9	77.9	79.3	54	59.9	1	3	90	0.00	30.063 
11:00	78.5	78.5	79.6	51	58.8	0	2	90	0.00	30.063 
11:05	79.0	79.0	80.1	52	59.8	0	2	90	0.00	30.063 
11:10	78.6	78.6	79.8	53	60.0	1	2	22	0.00	30.063 
11:15	79.2	79.2	80.4	53	60.6	0	3	22	0.00	30.062 
11:20	79.4	79.4	80.5	53	60.8	1	2	45	0.00	30.062 
11:25	79.8	79.8	81.1	55	62.2	1	2	45	0.00	30.062 
11:30	80.1	80.1	80.9	50	59.8	0	2	45	0.00	30.053 
11:35	79.9	79.9	81.0	53	61.2	1	4	90	0.00	30.053 
11:40	79.6	79.6	80.7	53	60.9	0	2	90	0.00	30.053 
11:45	79.0	79.0	80.3	54	60.9	1	4	112	0.00	30.054 
11:50	78.6	78.6	79.8	53	60.0	0	2	90	0.00	30.054 
11:55	78.8	78.8	80.1	55	61.2	0	1	112	0.00	30.054 
12:00	78.6	78.6	80.0	55	61.1	0	1	112	0.00	30.060 
12:05	78.6	78.6	79.9	54	60.5	0	1	112	0.00	30.060 
12:10	78.8	78.8	80.0	53	60.2	0	3	112	0.00	30.060 
12:15	79.0	79.0	80.1	52	59.8	1	2	112	0.00	30.055 
12:20	79.4	79.4	80.5	52	60.2	0	2	112	0.00	30.055 
12:25	79.9	79.9	80.8	51	60.1	0	2	112	0.00	30.055 
12:30	80.5	80.5	80.9	47	58.4	0	1	112	0.00	30.052 
12:35	81.2	81.2	81.8	49	60.2	1	3	112	0.00	30.052 
12:40	80.9	80.9	81.4	48	59.3	1	4	112	0.00	30.052 
12:45	80.5	80.5	81.2	49	59.6	1	4	90	0.00	30.044 
12:50	79.9	79.9	80.4	47	57.8	0	2	90	0.00	30.044 
12:55	79.8	79.8	80.3	46	57.2	1	4	90	0.00	30.044 
13:00	79.6	79.6	80.2	47	57.6	0	3	90	0.00	30.046 
13:05	79.8	79.8	80.3	46	57.2	0	1	90	0.00	30.046 
13:10	79.9	79.9	80.8	51	60.1	0	3	90	0.00	30.046 
13:15	80.1	80.1	80.7	48	58.6	1	4	90	0.00	30.039 
13:20	80.5	80.5	80.8	46	57.8	1	4	90	0.00	30.039 
13:25	80.7	80.7	81.0	46	58.0	1	3	90	0.00	30.039 
13:30	80.5	80.5	80.8	46	57.8	1	4	68	0.00	30.036 
13:35	80.1	80.1	80.5	46	57.4	1	3	68	0.00	30.036 
13:40	79.8	79.8	80.5	49	58.9	2	4	90	0.00	30.036 
13:45	79.4	79.4	79.9	45	56.2	1	3	90	0.00	30.037 
13:50	79.2	79.2	80.0	48	57.8	0	1	90	0.00	30.037 
13:55	79.4	79.4	80.1	48	58.0	0	1	90	0.00	30.037 
14:00	79.4	79.4	80.1	48	58.0	1	2	90	0.00	30.038 
14:05	79.4	79.4	80.1	48	58.0	0	2	90	0.00	30.038 
14:10	79.4	79.4	80.1	48	58.0	0	2	90	0.00	30.038 
14:15	79.4	79.4	80.2	49	58.5	1	4	90	0.00	30.045 
14:20	79.4	79.4	80.4	51	59.7	0	1	90	0.00	30.045 
14:25	79.6	79.6	80.2	47	57.6	1	3	135	0.00	30.045 
14:30	79.8	79.8	80.4	47	57.8	0	1	135	0.00	30.040 
14:35	80.1	80.1	80.5	46	57.4	0	3	135	0.00	30.040 
14:40	80.7	80.7	81.0	46	58.0	1	3	135	0.00	30.040 
14:45	80.7	80.7	81.2	48	59.2	1	3	135	0.00	30.032 
14:50	81.1	81.1	81.4	46	58.3	1	3	112	0.00	30.032 
14:55	81.6	81.6	81.9	47	59.4	1	3	90	0.00	30.032 
15:00	82.0	82.0	81.8	43	57.3	1	4	90	0.00	30.031 
15:05	82.2	82.2	82.0	43	57.4	1	4	112	0.00	30.031 
15:10	82.0	82.0	81.9	44	57.9	0	3	112	0.00	30.031 
15:15	81.8	81.8	81.9	45	58.4	1	3	112	0.00	30.025 
15:20	81.6	81.6	81.6	44	57.5	0	1	90	0.00	30.025 
15:25	81.4	81.4	81.6	46	58.6	0	1	90	0.00	30.025 
15:30	81.2	81.2	81.1	43	56.5	0	3	90	0.00	30.026 
15:35	81.2	81.2	81.3	45	57.8	1	2	90	0.00	30.026 
15:40	81.1	81.1	81.3	45	57.7	0	1	90	0.00	30.026 
15:45	81.2	81.2	81.5	46	58.4	0	1	90	0.00	30.020 
15:50	81.2	81.2	81.1	43	56.5	1	4	90	0.00	30.020 
15:55	81.2	81.2	81.2	44	57.2	0	2	90	0.00	30.020 
16:00	81.1	81.1	81.3	45	57.7	1	2	90	0.00	30.015 
16:05	80.7	80.7	81.1	47	58.6	0	2	90	0.00	30.015 
16:10	80.3	80.3	80.6	45	57.0	0	2	90	0.00	30.015 
16:15	79.9	79.9	80.4	46	57.2	0	1	90	0.00	30.013 
16:20	79.9	79.9	80.3	45	56.6	0	1	90	0.00	30.013 
16:25	80.1	80.1	80.4	45	56.8	0	1	90	0.00	30.013 
16:30	80.3	80.3	80.7	46	57.6	0	2	90	0.00	30.002 
16:35	80.5	80.5	80.8	46	57.8	1	3	90	0.00	30.002 
16:40	80.7	80.7	81.0	46	58.0	0	2	135	0.00	30.002 
16:45	80.9	80.9	81.0	44	56.9	0	1	135	0.00	29.995 
16:50	81.1	81.1	81.4	46	58.3	0	1	135	0.00	29.995 
16:55	81.1	81.1	81.4	46	58.3	0	2	135	0.00	29.995 
17:00	81.1	81.1	81.4	46	58.3	0	2	135	0.00	29.989 
17:05	81.1	81.1	81.4	46	58.3	0	1	135	0.00	29.989 
17:10	80.9	80.9	81.3	47	58.8	0	2	90	0.00	29.989 
17:15	80.5	80.5	80.9	47	58.4	0	2	112	0.00	29.989 
17:20	80.1	80.1	80.9	50	59.8	0	3	112	0.00	29.989 
17:25	79.9	79.9	80.5	48	58.4	0	1	90	0.00	29.989 
17:30	79.6	79.6	80.3	48	58.2	0	3	112	0.00	29.989 
17:35	79.6	79.6	80.5	50	59.3	0	2	112	0.00	29.989 
17:40	79.6	79.6	80.4	49	58.7	0	1	112	0.00	29.989 
17:45	79.6	79.6	80.3	48	58.2	0	1	112	0.00	29.985 
17:50	79.6	79.6	80.3	48	58.2	0	1	112	0.00	29.985 
17:55	79.8	79.8	80.6	50	59.5	0	1	90	0.00	29.985 
18:00	79.9	79.9	80.6	49	59.0	0	0	---	0.00	29.983 
18:05	79.9	79.9	80.7	50	59.6	0	0	---	0.00	29.983 
18:10	79.9	79.9	80.6	49	59.0	0	1	112	0.00	29.983 
18:15	79.8	79.8	80.5	49	58.9	0	1	112	0.00	29.983 
18:20	79.6	79.6	80.4	49	58.7	0	0	---	0.00	29.983 
18:25	79.4	79.4	80.4	51	59.7	0	0	---	0.00	29.983 
18:30	79.2	79.2	80.2	51	59.5	0	1	112	0.00	29.981 
18:35	79.0	79.0	80.0	50	58.7	0	1	112	0.00	29.981 
18:40	79.0	79.0	80.0	51	59.3	0	0	---	0.00	29.981 
18:45	79.0	79.0	80.0	51	59.3	0	1	90	0.00	29.971 
18:50	79.0	79.0	80.1	52	59.8	0	0	---	0.00	29.971 
18:55	78.8	78.8	80.0	53	60.2	0	0	---	0.00	29.971 
19:00	78.8	78.8	80.0	53	60.2	0	0	---	0.00	29.970 
19:05	78.8	78.8	79.9	52	59.7	0	0	---	0.00	29.970 
19:10	78.6	78.6	79.8	53	60.0	0	0	---	0.00	29.970 
19:15	78.6	78.6	79.8	52	59.5	0	0	---	0.00	29.966 
19:20	78.6	78.6	79.8	53	60.0	0	0	---	0.00	29.966 
19:25	78.5	78.5	79.8	54	60.4	0	0	---	0.00	29.966 
19:30	78.3	78.3	79.6	53	59.7	0	0	---	0.00	29.963 
19:35	78.3	78.3	79.7	54	60.3	0	1	112	0.00	29.963 
19:40	77.9	77.9	79.4	55	60.4	0	1	112	0.00	29.963 
19:45	77.7	77.7	79.2	55	60.2	0	0	---	0.00	29.958 
19:50	77.6	77.6	79.2	55	60.1	0	0	---	0.00	29.958 
19:55	77.4	77.4	79.0	56	60.5	0	0	---	0.00	29.958 
20:00	77.2	77.2	78.9	57	60.8	0	0	---	0.00	29.953 
20:05	77.0	77.0	78.7	56	60.1	0	0	---	0.00	29.953 
20:10	76.8	76.8	78.6	56	59.9	0	0	---	0.00	29.953 
20:15	76.7	76.7	78.5	57	60.3	0	0	---	0.00	29.951 
20:20	76.5	76.5	78.4	56	59.6	0	2	112	0.00	29.951 
20:25	76.5	76.5	78.4	56	59.6	0	2	112	0.00	29.951 
20:30	76.3	76.3	78.3	57	59.9	0	1	112	0.00	29.950 
20:35	76.1	76.1	78.1	58	60.2	0	1	90	0.00	29.950 
20:40	76.0	76.0	78.0	58	60.1	0	0	---	0.00	29.950 
20:45	75.8	75.8	77.9	60	60.9	0	0	---	0.00	29.948 
20:50	75.6	75.6	77.7	61	61.2	0	0	---	0.00	29.948 
20:55	75.3	75.3	77.4	63	61.8	0	0	---	0.00	29.948 
21:00	74.9	74.9	74.9	64	61.9	0	0	---	0.00	29.950 
21:05	74.6	74.6	74.6	66	62.5	0	0	---	0.00	29.950 
21:10	74.2	74.2	74.2	69	63.4	0	0	---	0.00	29.950 
21:15	73.9	73.9	73.9	71	63.9	0	0	---	0.00	29.947 
21:20	73.5	73.5	73.5	72	63.9	0	0	---	0.00	29.947 
21:25	73.2	73.2	73.2	73	64.0	0	0	---	0.00	29.947 
21:30	72.8	72.8	72.8	76	64.8	0	0	---	0.00	29.948 
21:35	72.7	72.7	72.7	77	65.1	0	0	---	0.00	29.948 
21:40	72.5	72.5	72.5	80	66.0	0	0	---	0.00	29.948 
21:45	72.1	72.1	72.1	81	65.9	0	0	---	0.00	29.948 
21:50	71.8	71.8	71.8	81	65.6	0	0	---	0.00	29.948 
21:55	71.8	71.8	71.8	83	66.3	0	0	---	0.00	29.948 
22:00	71.6	71.6	71.6	84	66.5	0	0	---	0.00	29.948 
22:05	71.6	71.6	71.6	84	66.5	0	0	---	0.00	29.948 
22:10	71.5	71.5	71.5	85	66.7	0	0	---	0.00	29.948 
22:15	71.5	71.5	71.5	86	67.1	0	0	---	0.00	29.945 
22:20	71.5	71.5	71.5	85	66.7	0	0	---	0.00	29.945 
22:25	71.1	71.1	71.1	84	66.0	0	0	---	0.00	29.945 
22:30	70.9	70.9	70.9	84	65.8	0	0	---	0.00	29.945 
22:35	70.9	70.9	70.9	83	65.5	0	0	---	0.00	29.945 
22:40	70.8	70.8	70.8	82	65.0	0	0	---	0.00	29.945 
22:45	70.8	70.8	70.8	82	65.0	0	0	---	0.00	29.945 
22:50	70.8	70.8	70.8	82	65.0	0	0	---	0.00	29.945 
22:55	70.8	70.8	70.8	82	65.0	0	0	---	0.00	29.945 
23:00	70.9	70.9	70.9	83	65.5	0	0	---	0.00	29.945 
23:05	70.9	70.9	70.9	83	65.5	0	0	---	0.00	29.945 
23:10	70.9	70.9	70.9	83	65.5	0	0	---	0.00	29.945 
23:15	70.9	70.9	70.9	82	65.1	0	0	---	0.00	29.942 
23:20	70.9	70.9	70.9	82	65.1	0	0	---	0.00	29.942 
23:25	70.8	70.8	70.8	82	65.0	0	0	---	0.00	29.942 
23:30	70.9	70.9	70.9	82	65.1	0	0	---	0.00	29.938 
23:35	70.9	70.9	70.9	83	65.5	0	0	---	0.00	29.938 
23:40	70.9	70.9	70.9	83	65.5	0	0	---	0.00	29.938 
23:45	70.8	70.8	70.8	82	65.0	0	0	---	0.00	29.935 
23:50	70.8	70.8	70.8	82	65.0	0	0	---	0.00	29.935 
23:55	70.8	70.8	70.8	82	65.0	0	0	---	0.00	29.935 

CoCoRaHS
IN-AL-39
A2 Web Hosting
Creative Commons License
GoDaddy
search engine by freefind advanced

loaded 2018-11-17 12:17:53 • last modified 2010-11-18 10:43:29
Privacy PolicyDisclaimer
• wx.awcolley.com is powered by PmWiki v.2002016 •
• all content (unless otherwise noted) © 2018 A W Colley